アナディリ の空港の天気 - METARとTAF

アナディリ・ウゴルヌイ空港 ( UHMA / DYR ) - ロシア アナディリ
飛行場実況気象(Metar)
観測時間03/29 08:00 +11 (03/28 21:00 UTC)
風向・風速北北東 4m/s
視程10km以上
天気現象周辺で霧
なし
気温-24℃
湿度91%
気圧1018hPa
METARUHMA 282100Z 02004MPS 9999 VCFG NSC M24/M25 Q1018 R88/60D NOSIG RMK QFE760/1013
過去の天気等 Google飛行場航空写真 Wunderground天気予報

過去48時間のMETAR

飛行場予報(TAF)
発表時間: 3/29 06:49 +11 (3/28 19:49 UTC)
予報対象時間: 29日8時 +11 ~ 30日8時 +11
風向・風速北 5m/s
視程10km以上
少しの雲 雲底高度 760m
29日8時 +11 ~ 29日23時 +11 に一時的に
風向・風速不定 1m/s
視程1,500m
天気現象散在した霧
全天の4割程度の雲 雲底高度 210m
29日23時 +11 ~ 30日7時 +11 に一時的に
視程500m
天気現象氷霧
全天を覆う雲 鉛直視程 90m
TAF UHMA 281949Z 2821/2921 36005MPS 9999 FEW025
TEMPO 2821/2912 VRB01MPS 1500 BCFG SCT007
TEMPO 2912/2920 0500 FZFG VV003